• Join FlightAware (Why Join?)
  • Login
  • US Flag 
01:22PM EDT


 

Airport Tracker/Info


-or-


 

Live Flight TrackerFlight Track Log ✈ UAL3822 ✈ 03-May-2013 ✈ KEWR - KBDL

Flight Track Log - Related Links

Times and Time Zones

All times are in EDT time to prevent confusion due to time zone crossing. See the UAL3822 flight status page for this flight to view local times or setup timezone preferences in your user account.

Time Position Orientation Groundspeed Altitude Reporting Facility
EDT Latitude Longitude Course Direction KTS MPH feet Rate Location/Type
07:51AM 40.7167 -74.1333 59° Northeast 180 207 2,600  Level New York TRACON
07:52AM 40.7833 -74.1000 21° North 220 253 4,600 2,040 Climbing New York TRACON
07:53AM 40.8333 -74.0667 27° Northeast 237 273 6,500 2,460 Climbing New York TRACON
07:54AM 40.8248 -73.8338 57° Northeast  Level FlightAware Approximate
07:54AM 40.8667 -73.9833 62° Northeast 247 284 9,300  Level New York TRACON
07:55AM 40.8635 -73.7504 59° Northeast  Level FlightAware Approximate
07:55AM 40.9000 -73.9000 62° Northeast 284 327 10,000  Level New York TRACON
07:56AM 40.9017 -73.6663 59° Northeast  Level FlightAware Approximate
07:56AM 40.9500 -73.8167 52° Northeast 303 349 10,000  Level New York TRACON
07:57AM 41.0000 -73.7333 51° Northeast 300 345 10,000  Level New York TRACON
07:58AM 41.0667 -73.6667 37° Northeast 367 422 10,000  Level New York TRACON
07:59AM 41.1333 -73.5833 43° Northeast 302 348 10,000  Level New York TRACON
08:00AM 41.2000 -73.5167 37° Northeast 310 357 10,000  Level New York TRACON
08:01AM 41.2667 -73.4500 37° Northeast 308 354 10,000  Level New York TRACON
08:02AM 41.3358 -73.3661 42° Northeast 308 354 10,000  Level Boston Center
08:02AM 41.3672 -73.3333 38° Northeast 307 353 10,000  Level Boston Center
08:03AM 41.4347 -73.2569 40° Northeast 306 352 10,000  Level Boston Center
08:04AM 41.5017 -73.1858 38° Northeast 306 352 10,000  Level Boston Center
08:05AM 41.5564 -73.1253 40° Northeast 284 327 10,000 -840 Level Boston Center
08:06AM 41.6131 -73.0647 39° Northeast 247 284 8,400 -1,800 Descending Boston Center
08:07AM 41.6653 -73.0069 40° Northeast 247 284 6,400 -1,920 Descending Boston Center
08:08AM 41.7156 -72.9492 41° Northeast 242 278 4,600 -1,560 Descending Boston Center
08:09AM 41.7639 -72.8967 39° Northeast 221 254 3,300 -840 Descending Boston Center
08:10AM 41.8078 -72.8494 39° Northeast 220 253 3,000 -360 Descending Boston Center
08:11AM 41.8558 -72.7997 38° Northeast 216 249 2,700 -780 Descending Boston Center
08:12AM 41.8894 -72.7553 45° Northeast 150 173 1,400 -960 Descending Boston Center
08:13AM 41.9144 -72.7247 42° Northeast 122 140 700 -720 Descending Boston Center